sensor_id;sensor_type;location;lat;lon;timestamp;temperature;humidity
43561;DHT22;32305;46.410;17.394;2022-12-29T00:00:21;19.50;36.50
43561;DHT22;32305;46.410;17.394;2022-12-29T00:02:48;19.60;36.60
43561;DHT22;32305;46.410;17.394;2022-12-29T00:05:15;19.60;36.60
43561;DHT22;32305;46.410;17.394;2022-12-29T00:07:43;19.50;36.50
43561;DHT22;32305;46.410;17.394;2022-12-29T00:10:10;19.50;36.60
43561;DHT22;32305;46.410;17.394;2022-12-29T00:12:37;19.60;36.60
43561;DHT22;32305;46.410;17.394;2022-12-29T00:15:24;19.60;36.60
43561;DHT22;32305;46.410;17.394;2022-12-29T00:18:04;19.50;36.60
43561;DHT22;32305;46.410;17.394;2022-12-29T00:20:36;19.50;36.60
43561;DHT22;32305;46.410;17.394;2022-12-29T00:23:24;19.50;36.60
43561;DHT22;32305;46.410;17.394;2022-12-29T00:26:13;19.50;36.60
43561;DHT22;32305;46.410;17.394;2022-12-29T00:29:01;19.50;36.60
43561;DHT22;32305;46.410;17.394;2022-12-29T00:31:49;19.50;36.60
43561;DHT22;32305;46.410;17.394;2022-12-29T00:34:36;19.50;36.60
43561;DHT22;32305;46.410;17.394;2022-12-29T00:37:23;19.50;36.60
43561;DHT22;32305;46.410;17.394;2022-12-29T00:40:10;19.50;36.60
43561;DHT22;32305;46.410;17.394;2022-12-29T00:42:56;19.50;36.70
43561;DHT22;32305;46.410;17.394;2022-12-29T00:45:43;19.50;36.60
43561;DHT22;32305;46.410;17.394;2022-12-29T00:48:11;19.50;36.60
43561;DHT22;32305;46.410;17.394;2022-12-29T00:50:38;19.50;36.60
43561;DHT22;32305;46.410;17.394;2022-12-29T00:53:05;19.50;36.60
43561;DHT22;32305;46.410;17.394;2022-12-29T00:55:36;19.50;36.70
43561;DHT22;32305;46.410;17.394;2022-12-29T00:58:04;19.50;36.70
43561;DHT22;32305;46.410;17.394;2022-12-29T01:00:31;19.50;36.60
43561;DHT22;32305;46.410;17.394;2022-12-29T01:03:00;19.50;36.70
43561;DHT22;32305;46.410;17.394;2022-12-29T01:05:27;19.50;36.70
43561;DHT22;32305;46.410;17.394;2022-12-29T01:07:54;19.50;36.70
43561;DHT22;32305;46.410;17.394;2022-12-29T01:10:21;19.50;36.70
43561;DHT22;32305;46.410;17.394;2022-12-29T01:12:48;19.50;36.70
43561;DHT22;32305;46.410;17.394;2022-12-29T01:15:17;19.50;36.70
43561;DHT22;32305;46.410;17.394;2022-12-29T01:17:44;19.50;36.70
43561;DHT22;32305;46.410;17.394;2022-12-29T01:20:11;19.40;36.70
43561;DHT22;32305;46.410;17.394;2022-12-29T01:22:39;19.50;36.70
43561;DHT22;32305;46.410;17.394;2022-12-29T01:25:09;19.40;36.70
43561;DHT22;32305;46.410;17.394;2022-12-29T01:27:36;19.40;36.70
43561;DHT22;32305;46.410;17.394;2022-12-29T01:30:04;19.40;36.70
43561;DHT22;32305;46.410;17.394;2022-12-29T01:32:31;19.40;36.70
43561;DHT22;32305;46.410;17.394;2022-12-29T01:34:58;19.40;36.70
43561;DHT22;32305;46.410;17.394;2022-12-29T01:37:25;19.40;36.70
43561;DHT22;32305;46.410;17.394;2022-12-29T01:39:52;19.40;36.70
43561;DHT22;32305;46.410;17.394;2022-12-29T01:42:23;19.40;36.70
43561;DHT22;32305;46.410;17.394;2022-12-29T01:44:56;19.40;36.80
43561;DHT22;32305;46.410;17.394;2022-12-29T01:47:30;19.40;36.80
43561;DHT22;32305;46.410;17.394;2022-12-29T01:50:04;19.40;36.80
43561;DHT22;32305;46.410;17.394;2022-12-29T01:52:34;19.40;36.80
43561;DHT22;32305;46.410;17.394;2022-12-29T01:55:03;19.40;36.80
43561;DHT22;32305;46.410;17.394;2022-12-29T01:57:37;19.40;36.80
43561;DHT22;32305;46.410;17.394;2022-12-29T02:00:09;19.40;36.80
43561;DHT22;32305;46.410;17.394;2022-12-29T02:02:37;19.40;36.80
43561;DHT22;32305;46.410;17.394;2022-12-29T02:05:11;19.40;36.80
43561;DHT22;32305;46.410;17.394;2022-12-29T02:07:39;19.40;36.80
43561;DHT22;32305;46.410;17.394;2022-12-29T02:10:07;19.40;36.80
43561;DHT22;32305;46.410;17.394;2022-12-29T02:12:34;19.40;36.80
43561;DHT22;32305;46.410;17.394;2022-12-29T02:15:02;19.40;36.80
43561;DHT22;32305;46.410;17.394;2022-12-29T02:17:59;19.40;36.90
43561;DHT22;32305;46.410;17.394;2022-12-29T02:30:08;19.40;36.90
43561;DHT22;32305;46.410;17.394;2022-12-29T02:32:58;19.40;36.90
43561;DHT22;32305;46.410;17.394;2022-12-29T02:35:45;19.40;36.90
43561;DHT22;32305;46.410;17.394;2022-12-29T02:38:40;19.40;36.90
43561;DHT22;32305;46.410;17.394;2022-12-29T02:41:34;19.40;36.90
43561;DHT22;32305;46.410;17.394;2022-12-29T02:44:26;19.40;36.90
43561;DHT22;32305;46.410;17.394;2022-12-29T02:47:21;19.40;36.90
43561;DHT22;32305;46.410;17.394;2022-12-29T02:50:14;19.40;36.90
43561;DHT22;32305;46.410;17.394;2022-12-29T02:52:58;19.30;36.90
43561;DHT22;32305;46.410;17.394;2022-12-29T02:55:26;19.40;36.90
43561;DHT22;32305;46.410;17.394;2022-12-29T02:58:20;19.40;36.90
43561;DHT22;32305;46.410;17.394;2022-12-29T03:01:03;19.40;36.90
43561;DHT22;32305;46.410;17.394;2022-12-29T03:04:00;19.40;36.90
43561;DHT22;32305;46.410;17.394;2022-12-29T03:06:52;19.40;36.90
43561;DHT22;32305;46.410;17.394;2022-12-29T03:09:40;19.40;36.90
43561;DHT22;32305;46.410;17.394;2022-12-29T03:12:30;19.40;36.90
43561;DHT22;32305;46.410;17.394;2022-12-29T03:15:25;19.30;36.90
43561;DHT22;32305;46.410;17.394;2022-12-29T03:18:31;19.30;36.90
43561;DHT22;32305;46.410;17.394;2022-12-29T03:21:10;19.30;36.90
43561;DHT22;32305;46.410;17.394;2022-12-29T03:23:39;19.40;36.90
43561;DHT22;32305;46.410;17.394;2022-12-29T03:26:11;19.40;37.00
43561;DHT22;32305;46.410;17.394;2022-12-29T03:28:44;19.30;36.90
43561;DHT22;32305;46.410;17.394;2022-12-29T03:31:13;19.30;36.90
43561;DHT22;32305;46.410;17.394;2022-12-29T03:33:41;19.30;36.90
43561;DHT22;32305;46.410;17.394;2022-12-29T03:36:17;19.30;37.50
43561;DHT22;32305;46.410;17.394;2022-12-29T03:38:49;19.30;36.90
43561;DHT22;32305;46.410;17.394;2022-12-29T03:41:22;19.30;36.90
43561;DHT22;32305;46.410;17.394;2022-12-29T03:43:50;19.30;36.90
43561;DHT22;32305;46.410;17.394;2022-12-29T03:46:18;19.30;36.90
43561;DHT22;32305;46.410;17.394;2022-12-29T03:48:45;19.30;37.00
43561;DHT22;32305;46.410;17.394;2022-12-29T03:51:12;19.30;37.00
43561;DHT22;32305;46.410;17.394;2022-12-29T03:53:40;19.30;37.00
43561;DHT22;32305;46.410;17.394;2022-12-29T03:56:07;19.30;37.00
43561;DHT22;32305;46.410;17.394;2022-12-29T03:58:34;19.30;36.90
43561;DHT22;32305;46.410;17.394;2022-12-29T04:01:01;19.30;37.00
43561;DHT22;32305;46.410;17.394;2022-12-29T04:03:29;19.30;37.00
43561;DHT22;32305;46.410;17.394;2022-12-29T04:05:56;19.30;37.00
43561;DHT22;32305;46.410;17.394;2022-12-29T04:08:23;19.30;37.00
43561;DHT22;32305;46.410;17.394;2022-12-29T04:10:50;19.30;37.00
43561;DHT22;32305;46.410;17.394;2022-12-29T04:13:17;19.30;37.00
43561;DHT22;32305;46.410;17.394;2022-12-29T04:15:44;19.30;37.00
43561;DHT22;32305;46.410;17.394;2022-12-29T04:18:12;19.30;37.00
43561;DHT22;32305;46.410;17.394;2022-12-29T04:20:40;19.30;37.00
43561;DHT22;32305;46.410;17.394;2022-12-29T04:23:27;19.30;37.00
43561;DHT22;32305;46.410;17.394;2022-12-29T04:25:55;19.30;37.00
43561;DHT22;32305;46.410;17.394;2022-12-29T04:28:22;19.30;37.00
43561;DHT22;32305;46.410;17.394;2022-12-29T04:30:50;19.30;37.00
43561;DHT22;32305;46.410;17.394;2022-12-29T04:33:17;19.30;37.00
43561;DHT22;32305;46.410;17.394;2022-12-29T04:35:47;19.30;37.00
43561;DHT22;32305;46.410;17.394;2022-12-29T04:38:14;19.30;37.00
43561;DHT22;32305;46.410;17.394;2022-12-29T04:40:43;19.30;37.00
43561;DHT22;32305;46.410;17.394;2022-12-29T04:43:11;19.30;37.00
43561;DHT22;32305;46.410;17.394;2022-12-29T04:45:42;19.30;37.10
43561;DHT22;32305;46.410;17.394;2022-12-29T04:48:10;19.30;37.00
43561;DHT22;32305;46.410;17.394;2022-12-29T04:50:37;19.30;37.00
43561;DHT22;32305;46.410;17.394;2022-12-29T04:53:04;19.30;37.00
43561;DHT22;32305;46.410;17.394;2022-12-29T04:55:32;19.30;37.00
43561;DHT22;32305;46.410;17.394;2022-12-29T04:57:59;19.30;37.00
43561;DHT22;32305;46.410;17.394;2022-12-29T05:00:26;19.30;37.00
43561;DHT22;32305;46.410;17.394;2022-12-29T05:02:53;19.30;37.00
43561;DHT22;32305;46.410;17.394;2022-12-29T05:05:20;19.30;37.00
43561;DHT22;32305;46.410;17.394;2022-12-29T05:07:48;19.30;37.00
43561;DHT22;32305;46.410;17.394;2022-12-29T05:10:15;19.30;37.00
43561;DHT22;32305;46.410;17.394;2022-12-29T05:12:44;19.30;37.00
43561;DHT22;32305;46.410;17.394;2022-12-29T05:15:11;19.20;36.90
43561;DHT22;32305;46.410;17.394;2022-12-29T05:17:38;19.30;37.00
43561;DHT22;32305;46.410;17.394;2022-12-29T05:20:06;19.30;37.00
43561;DHT22;32305;46.410;17.394;2022-12-29T05:22:33;19.30;37.00
43561;DHT22;32305;46.410;17.394;2022-12-29T05:25:00;19.30;37.00
43561;DHT22;32305;46.410;17.394;2022-12-29T05:27:27;19.30;37.00
43561;DHT22;32305;46.410;17.394;2022-12-29T05:29:54;19.30;37.00
43561;DHT22;32305;46.410;17.394;2022-12-29T05:32:22;19.20;37.00
43561;DHT22;32305;46.410;17.394;2022-12-29T05:34:49;19.30;37.10
43561;DHT22;32305;46.410;17.394;2022-12-29T05:37:16;19.30;37.00
43561;DHT22;32305;46.410;17.394;2022-12-29T05:39:44;19.30;36.90
43561;DHT22;32305;46.410;17.394;2022-12-29T05:42:11;19.20;36.70
43561;DHT22;32305;46.410;17.394;2022-12-29T05:44:38;19.20;36.70
43561;DHT22;32305;46.410;17.394;2022-12-29T05:47:05;19.20;36.80
43561;DHT22;32305;46.410;17.394;2022-12-29T05:49:32;19.20;36.80
43561;DHT22;32305;46.410;17.394;2022-12-29T05:51:59;19.20;36.80
43561;DHT22;32305;46.410;17.394;2022-12-29T05:54:26;19.20;36.80
43561;DHT22;32305;46.410;17.394;2022-12-29T05:56:53;19.20;36.70
43561;DHT22;32305;46.410;17.394;2022-12-29T05:59:20;19.20;36.60
43561;DHT22;32305;46.410;17.394;2022-12-29T06:01:47;19.20;36.60
43561;DHT22;32305;46.410;17.394;2022-12-29T06:04:15;19.20;36.50
43561;DHT22;32305;46.410;17.394;2022-12-29T06:06:43;19.30;36.50
43561;DHT22;32305;46.410;17.394;2022-12-29T06:09:10;19.30;36.50
43561;DHT22;32305;46.410;17.394;2022-12-29T06:11:37;19.30;36.40
43561;DHT22;32305;46.410;17.394;2022-12-29T06:14:04;19.30;36.40
43561;DHT22;32305;46.410;17.394;2022-12-29T06:16:31;19.40;36.40
43561;DHT22;32305;46.410;17.394;2022-12-29T06:18:59;19.40;36.30
43561;DHT22;32305;46.410;17.394;2022-12-29T06:21:26;19.40;36.30
43561;DHT22;32305;46.410;17.394;2022-12-29T06:23:53;19.40;36.20
43561;DHT22;32305;46.410;17.394;2022-12-29T06:26:20;19.40;36.20
43561;DHT22;32305;46.410;17.394;2022-12-29T06:28:47;19.50;36.10
43561;DHT22;32305;46.410;17.394;2022-12-29T06:31:14;19.50;36.10
43561;DHT22;32305;46.410;17.394;2022-12-29T06:33:41;19.50;36.10
43561;DHT22;32305;46.410;17.394;2022-12-29T06:36:16;19.50;36.00
43561;DHT22;32305;46.410;17.394;2022-12-29T06:38:44;19.50;36.00
43561;DHT22;32305;46.410;17.394;2022-12-29T06:41:11;19.50;35.90
43561;DHT22;32305;46.410;17.394;2022-12-29T06:43:38;19.60;35.90
43561;DHT22;32305;46.410;17.394;2022-12-29T06:46:05;19.60;35.90
43561;DHT22;32305;46.410;17.394;2022-12-29T06:48:33;19.60;35.90
43561;DHT22;32305;46.410;17.394;2022-12-29T06:51:00;19.60;35.80
43561;DHT22;32305;46.410;17.394;2022-12-29T06:53:27;19.70;35.80
43561;DHT22;32305;46.410;17.394;2022-12-29T06:55:54;19.70;35.70
43561;DHT22;32305;46.410;17.394;2022-12-29T06:58:23;19.70;35.70
43561;DHT22;32305;46.410;17.394;2022-12-29T07:00:50;19.80;35.60
43561;DHT22;32305;46.410;17.394;2022-12-29T07:03:17;19.80;35.60
43561;DHT22;32305;46.410;17.394;2022-12-29T07:05:45;19.80;35.50
43561;DHT22;32305;46.410;17.394;2022-12-29T07:08:12;19.90;35.50
43561;DHT22;32305;46.410;17.394;2022-12-29T07:10:39;19.90;35.40
43561;DHT22;32305;46.410;17.394;2022-12-29T07:13:06;19.90;35.30
43561;DHT22;32305;46.410;17.394;2022-12-29T07:15:36;20.00;35.30
43561;DHT22;32305;46.410;17.394;2022-12-29T07:18:04;20.00;35.30
43561;DHT22;32305;46.410;17.394;2022-12-29T07:20:31;20.00;35.20
43561;DHT22;32305;46.410;17.394;2022-12-29T07:22:59;20.10;35.20
43561;DHT22;32305;46.410;17.394;2022-12-29T07:25:26;20.10;35.10
43561;DHT22;32305;46.410;17.394;2022-12-29T07:27:53;20.10;35.10
43561;DHT22;32305;46.410;17.394;2022-12-29T07:30:20;20.10;35.00
43561;DHT22;32305;46.410;17.394;2022-12-29T07:32:47;20.10;35.00
43561;DHT22;32305;46.410;17.394;2022-12-29T07:35:15;20.20;35.00
43561;DHT22;32305;46.410;17.394;2022-12-29T07:37:43;20.20;34.90
43561;DHT22;32305;46.410;17.394;2022-12-29T07:40:10;20.20;34.90
43561;DHT22;32305;46.410;17.394;2022-12-29T07:42:37;20.20;34.90
43561;DHT22;32305;46.410;17.394;2022-12-29T07:45:05;20.30;34.90
43561;DHT22;32305;46.410;17.394;2022-12-29T07:47:32;20.30;34.80
43561;DHT22;32305;46.410;17.394;2022-12-29T07:49:59;20.30;34.80
43561;DHT22;32305;46.410;17.394;2022-12-29T07:52:26;20.40;34.80
43561;DHT22;32305;46.410;17.394;2022-12-29T07:54:54;20.40;34.70
43561;DHT22;32305;46.410;17.394;2022-12-29T07:57:21;20.50;34.70
43561;DHT22;32305;46.410;17.394;2022-12-29T07:59:57;20.50;34.70
43561;DHT22;32305;46.410;17.394;2022-12-29T08:02:24;20.50;34.60
43561;DHT22;32305;46.410;17.394;2022-12-29T08:04:53;20.50;34.60
43561;DHT22;32305;46.410;17.394;2022-12-29T08:07:20;20.60;34.50
43561;DHT22;32305;46.410;17.394;2022-12-29T08:09:47;20.60;34.50
43561;DHT22;32305;46.410;17.394;2022-12-29T08:12:14;20.60;34.40
43561;DHT22;32305;46.410;17.394;2022-12-29T08:14:42;20.70;34.40
43561;DHT22;32305;46.410;17.394;2022-12-29T08:17:09;20.70;34.40
43561;DHT22;32305;46.410;17.394;2022-12-29T08:19:37;20.70;34.30
43561;DHT22;32305;46.410;17.394;2022-12-29T08:22:04;20.70;34.30
43561;DHT22;32305;46.410;17.394;2022-12-29T08:24:31;20.70;34.30
43561;DHT22;32305;46.410;17.394;2022-12-29T08:26:58;20.80;34.30
43561;DHT22;32305;46.410;17.394;2022-12-29T08:29:38;20.80;34.20
43561;DHT22;32305;46.410;17.394;2022-12-29T08:32:05;20.80;34.20
43561;DHT22;32305;46.410;17.394;2022-12-29T08:34:33;20.90;34.20
43561;DHT22;32305;46.410;17.394;2022-12-29T08:37:00;20.90;34.20
43561;DHT22;32305;46.410;17.394;2022-12-29T08:39:27;20.90;34.10
43561;DHT22;32305;46.410;17.394;2022-12-29T08:41:54;21.00;34.10
43561;DHT22;32305;46.410;17.394;2022-12-29T08:44:21;21.00;34.10
43561;DHT22;32305;46.410;17.394;2022-12-29T08:46:48;21.10;34.00
43561;DHT22;32305;46.410;17.394;2022-12-29T08:49:16;21.10;33.90
43561;DHT22;32305;46.410;17.394;2022-12-29T08:51:43;21.10;33.90
43561;DHT22;32305;46.410;17.394;2022-12-29T08:54:10;21.20;34.00
43561;DHT22;32305;46.410;17.394;2022-12-29T08:56:37;21.20;33.90
43561;DHT22;32305;46.410;17.394;2022-12-29T08:59:04;21.20;33.90
43561;DHT22;32305;46.410;17.394;2022-12-29T09:01:31;21.30;33.90
43561;DHT22;32305;46.410;17.394;2022-12-29T09:04:00;21.30;33.80
43561;DHT22;32305;46.410;17.394;2022-12-29T09:06:45;21.30;33.80
43561;DHT22;32305;46.410;17.394;2022-12-29T09:09:12;21.40;33.80
43561;DHT22;32305;46.410;17.394;2022-12-29T09:11:39;21.40;33.80
43561;DHT22;32305;46.410;17.394;2022-12-29T09:14:08;21.40;33.70
43561;DHT22;32305;46.410;17.394;2022-12-29T09:16:35;21.50;33.70
43561;DHT22;32305;46.410;17.394;2022-12-29T09:19:03;21.50;33.70
43561;DHT22;32305;46.410;17.394;2022-12-29T09:21:31;21.50;33.70
43561;DHT22;32305;46.410;17.394;2022-12-29T09:23:58;21.60;33.60
43561;DHT22;32305;46.410;17.394;2022-12-29T09:26:25;21.60;33.60
43561;DHT22;32305;46.410;17.394;2022-12-29T09:28:52;21.70;33.60
43561;DHT22;32305;46.410;17.394;2022-12-29T09:31:19;21.70;33.50
43561;DHT22;32305;46.410;17.394;2022-12-29T09:33:46;21.70;33.40
43561;DHT22;32305;46.410;17.394;2022-12-29T09:36:13;21.80;33.50
43561;DHT22;32305;46.410;17.394;2022-12-29T09:38:40;21.80;33.50
43561;DHT22;32305;46.410;17.394;2022-12-29T09:41:29;21.80;33.40
43561;DHT22;32305;46.410;17.394;2022-12-29T09:44:07;21.80;33.40
43561;DHT22;32305;46.410;17.394;2022-12-29T09:46:47;21.80;33.40
43561;DHT22;32305;46.410;17.394;2022-12-29T09:49:39;21.80;33.40
43561;DHT22;32305;46.410;17.394;2022-12-29T09:52:19;21.90;33.40
43561;DHT22;32305;46.410;17.394;2022-12-29T09:55:04;21.90;33.40
43561;DHT22;32305;46.410;17.394;2022-12-29T09:57:59;21.90;33.40
43561;DHT22;32305;46.410;17.394;2022-12-29T10:00:58;21.90;33.40
43561;DHT22;32305;46.410;17.394;2022-12-29T10:03:49;22.00;33.40
43561;DHT22;32305;46.410;17.394;2022-12-29T10:06:26;22.00;33.40
43561;DHT22;32305;46.410;17.394;2022-12-29T10:14:58;22.00;33.40
43561;DHT22;32305;46.410;17.394;2022-12-29T10:20:44;22.10;33.40
43561;DHT22;32305;46.410;17.394;2022-12-29T10:23:27;22.10;33.40
43561;DHT22;32305;46.410;17.394;2022-12-29T10:25:57;22.10;33.40
43561;DHT22;32305;46.410;17.394;2022-12-29T10:28:42;22.10;33.40
43561;DHT22;32305;46.410;17.394;2022-12-29T10:31:16;22.10;33.40
43561;DHT22;32305;46.410;17.394;2022-12-29T10:33:51;22.10;33.40
43561;DHT22;32305;46.410;17.394;2022-12-29T10:36:41;22.10;33.40
43561;DHT22;32305;46.410;17.394;2022-12-29T10:39:21;22.10;33.40
43561;DHT22;32305;46.410;17.394;2022-12-29T10:42:09;22.10;33.40
43561;DHT22;32305;46.410;17.394;2022-12-29T10:44:38;22.20;33.50
43561;DHT22;32305;46.410;17.394;2022-12-29T10:47:10;22.20;33.50
43561;DHT22;32305;46.410;17.394;2022-12-29T10:49:41;22.20;33.50
43561;DHT22;32305;46.410;17.394;2022-12-29T10:52:10;22.20;33.50
43561;DHT22;32305;46.410;17.394;2022-12-29T10:54:45;22.20;33.50
43561;DHT22;32305;46.410;17.394;2022-12-29T10:57:33;22.20;33.50
43561;DHT22;32305;46.410;17.394;2022-12-29T11:00:14;22.20;33.50
43561;DHT22;32305;46.410;17.394;2022-12-29T11:03:02;22.20;34.10
43561;DHT22;32305;46.410;17.394;2022-12-29T11:08:30;22.20;33.50
43561;DHT22;32305;46.410;17.394;2022-12-29T11:11:04;22.20;33.50
43561;DHT22;32305;46.410;17.394;2022-12-29T11:13:34;22.30;33.60
43561;DHT22;32305;46.410;17.394;2022-12-29T11:16:05;22.30;33.60
43561;DHT22;32305;46.410;17.394;2022-12-29T11:18:40;22.20;33.60
43561;DHT22;32305;46.410;17.394;2022-12-29T11:21:33;22.20;33.50
43561;DHT22;32305;46.410;17.394;2022-12-29T11:24:04;22.20;33.60
43561;DHT22;32305;46.410;17.394;2022-12-29T11:26:32;22.20;33.60
43561;DHT22;32305;46.410;17.394;2022-12-29T11:29:17;22.20;33.60
43561;DHT22;32305;46.410;17.394;2022-12-29T11:31:48;22.20;33.70
43561;DHT22;32305;46.410;17.394;2022-12-29T11:34:34;22.20;33.70
43561;DHT22;32305;46.410;17.394;2022-12-29T11:37:10;22.30;33.80
43561;DHT22;32305;46.410;17.394;2022-12-29T11:39:52;22.20;33.70
43561;DHT22;32305;46.410;17.394;2022-12-29T11:42:37;22.30;33.80
43561;DHT22;32305;46.410;17.394;2022-12-29T11:45:17;22.30;34.40
43561;DHT22;32305;46.410;17.394;2022-12-29T11:47:48;22.20;33.80
43561;DHT22;32305;46.410;17.394;2022-12-29T11:50:29;22.30;33.90
43561;DHT22;32305;46.410;17.394;2022-12-29T11:53:06;22.20;33.80
43561;DHT22;32305;46.410;17.394;2022-12-29T11:55:40;22.30;33.90
43561;DHT22;32305;46.410;17.394;2022-12-29T11:58:17;22.20;33.90
43561;DHT22;32305;46.410;17.394;2022-12-29T12:00:46;22.30;34.00
43561;DHT22;32305;46.410;17.394;2022-12-29T12:03:19;22.30;34.00
43561;DHT22;32305;46.410;17.394;2022-12-29T12:05:55;22.30;34.00
43561;DHT22;32305;46.410;17.394;2022-12-29T12:08:47;22.30;34.60
43561;DHT22;32305;46.410;17.394;2022-12-29T12:11:22;22.30;34.00
43561;DHT22;32305;46.410;17.394;2022-12-29T12:13:59;22.30;34.10
43561;DHT22;32305;46.410;17.394;2022-12-29T12:16:40;22.30;34.10
43561;DHT22;32305;46.410;17.394;2022-12-29T12:19:26;22.30;34.10
43561;DHT22;32305;46.410;17.394;2022-12-29T12:22:11;22.30;34.10
43561;DHT22;32305;46.410;17.394;2022-12-29T12:24:47;22.30;34.20
43561;DHT22;32305;46.410;17.394;2022-12-29T12:27:33;22.30;34.20
43561;DHT22;32305;46.410;17.394;2022-12-29T12:30:21;22.30;34.20
43561;DHT22;32305;46.410;17.394;2022-12-29T12:33:00;22.30;34.30
43561;DHT22;32305;46.410;17.394;2022-12-29T12:38:54;22.30;34.30
43561;DHT22;32305;46.410;17.394;2022-12-29T12:41:48;22.30;34.40
43561;DHT22;32305;46.410;17.394;2022-12-29T12:44:29;22.30;34.40
43561;DHT22;32305;46.410;17.394;2022-12-29T12:47:21;22.20;34.40
43561;DHT22;32305;46.410;17.394;2022-12-29T12:50:17;22.30;34.60
43561;DHT22;32305;46.410;17.394;2022-12-29T12:53:19;22.30;34.60
43561;DHT22;32305;46.410;17.394;2022-12-29T12:56:15;22.30;34.60
43561;DHT22;32305;46.410;17.394;2022-12-29T12:58:58;22.20;34.50
43561;DHT22;32305;46.410;17.394;2022-12-29T13:01:58;22.30;34.60
43561;DHT22;32305;46.410;17.394;2022-12-29T13:07:42;22.30;34.70
43561;DHT22;32305;46.410;17.394;2022-12-29T13:13:46;22.30;34.70
43561;DHT22;32305;46.410;17.394;2022-12-29T13:19:34;22.20;34.80
43561;DHT22;32305;46.410;17.394;2022-12-29T13:22:36;22.20;34.80
43561;DHT22;32305;46.410;17.394;2022-12-29T13:25:41;22.20;34.90
43561;DHT22;32305;46.410;17.394;2022-12-29T13:28:25;22.20;34.80
43561;DHT22;32305;46.410;17.394;2022-12-29T13:31:20;22.20;34.90
43561;DHT22;32305;46.410;17.394;2022-12-29T13:34:15;22.20;34.90
43561;DHT22;32305;46.410;17.394;2022-12-29T13:36:57;22.20;35.00
43561;DHT22;32305;46.410;17.394;2022-12-29T13:39:36;22.20;35.00
43561;DHT22;32305;46.410;17.394;2022-12-29T13:42:05;22.20;35.00
43561;DHT22;32305;46.410;17.394;2022-12-29T13:44:46;22.20;35.10
43561;DHT22;32305;46.410;17.394;2022-12-29T13:47:29;22.20;35.10
43561;DHT22;32305;46.410;17.394;2022-12-29T13:50:02;22.20;35.10
43561;DHT22;32305;46.410;17.394;2022-12-29T13:53:11;22.20;35.20
43561;DHT22;32305;46.410;17.394;2022-12-29T13:55:45;22.20;35.20
43561;DHT22;32305;46.410;17.394;2022-12-29T13:58:27;22.10;35.20
43561;DHT22;32305;46.410;17.394;2022-12-29T14:04:00;22.10;35.20
43561;DHT22;32305;46.410;17.394;2022-12-29T14:06:34;22.10;35.30
43561;DHT22;32305;46.410;17.394;2022-12-29T14:09:46;22.10;35.30
43561;DHT22;32305;46.410;17.394;2022-12-29T14:12:36;22.10;35.40
43561;DHT22;32305;46.410;17.394;2022-12-29T14:15:15;22.10;35.40
43561;DHT22;32305;46.410;17.394;2022-12-29T14:17:43;22.10;35.50
43561;DHT22;32305;46.410;17.394;2022-12-29T14:20:22;22.10;35.50
43561;DHT22;32305;46.410;17.394;2022-12-29T14:23:26;22.10;35.50
43561;DHT22;32305;46.410;17.394;2022-12-29T14:26:12;22.10;36.10
43561;DHT22;32305;46.410;17.394;2022-12-29T14:28:43;22.10;35.50
43561;DHT22;32305;46.410;17.394;2022-12-29T14:31:33;22.10;35.60
43561;DHT22;32305;46.410;17.394;2022-12-29T14:37:01;22.00;35.70
43561;DHT22;32305;46.410;17.394;2022-12-29T14:39:43;22.00;35.70
43561;DHT22;32305;46.410;17.394;2022-12-29T14:42:14;22.00;35.80
43561;DHT22;32305;46.410;17.394;2022-12-29T14:44:57;22.00;35.80
43561;DHT22;32305;46.410;17.394;2022-12-29T14:47:37;22.00;35.80
43561;DHT22;32305;46.410;17.394;2022-12-29T14:50:14;22.00;35.90
43561;DHT22;32305;46.410;17.394;2022-12-29T14:52:51;21.90;35.90
43561;DHT22;32305;46.410;17.394;2022-12-29T14:55:38;21.90;35.90
43561;DHT22;32305;46.410;17.394;2022-12-29T14:58:30;21.90;36.00
43561;DHT22;32305;46.410;17.394;2022-12-29T15:00:59;21.90;36.10
43561;DHT22;32305;46.410;17.394;2022-12-29T15:03:32;21.90;36.10
43561;DHT22;32305;46.410;17.394;2022-12-29T15:06:07;21.90;36.10
43561;DHT22;32305;46.410;17.394;2022-12-29T15:08:44;21.80;36.10
43561;DHT22;32305;46.410;17.394;2022-12-29T15:11:17;21.80;36.10
43561;DHT22;32305;46.410;17.394;2022-12-29T15:13:45;21.80;36.10
43561;DHT22;32305;46.410;17.394;2022-12-29T15:16:29;21.80;36.10
43561;DHT22;32305;46.410;17.394;2022-12-29T15:18:57;21.80;36.20
43561;DHT22;32305;46.410;17.394;2022-12-29T15:21:27;21.70;36.20
43561;DHT22;32305;46.410;17.394;2022-12-29T15:23:56;21.70;36.30
43561;DHT22;32305;46.410;17.394;2022-12-29T15:26:23;21.70;36.30
43561;DHT22;32305;46.410;17.394;2022-12-29T15:29:02;21.60;36.30
43561;DHT22;32305;46.410;17.394;2022-12-29T15:31:29;21.60;36.40
43561;DHT22;32305;46.410;17.394;2022-12-29T15:34:12;21.60;36.50
43561;DHT22;32305;46.410;17.394;2022-12-29T15:36:40;21.50;36.40
43561;DHT22;32305;46.410;17.394;2022-12-29T15:39:19;21.50;36.50
43561;DHT22;32305;46.410;17.394;2022-12-29T15:41:53;21.40;36.60
43561;DHT22;32305;46.410;17.394;2022-12-29T15:44:42;21.40;36.60
43561;DHT22;32305;46.410;17.394;2022-12-29T15:47:26;21.40;36.70
43561;DHT22;32305;46.410;17.394;2022-12-29T15:50:04;21.40;36.70
43561;DHT22;32305;46.410;17.394;2022-12-29T15:52:33;21.30;36.80
43561;DHT22;32305;46.410;17.394;2022-12-29T15:55:01;21.30;36.80
43561;DHT22;32305;46.410;17.394;2022-12-29T15:57:36;21.30;36.90
43561;DHT22;32305;46.410;17.394;2022-12-29T16:00:28;21.20;36.90
43561;DHT22;32305;46.410;17.394;2022-12-29T16:02:58;21.20;37.00
43561;DHT22;32305;46.410;17.394;2022-12-29T16:05:34;21.20;37.10
43561;DHT22;32305;46.410;17.394;2022-12-29T16:08:03;21.20;37.20
43561;DHT22;32305;46.410;17.394;2022-12-29T16:10:39;21.10;37.10
43561;DHT22;32305;46.410;17.394;2022-12-29T16:13:26;21.10;37.20
43561;DHT22;32305;46.410;17.394;2022-12-29T16:16:09;21.10;37.20
43561;DHT22;32305;46.410;17.394;2022-12-29T16:18:40;21.10;37.30
43561;DHT22;32305;46.410;17.394;2022-12-29T16:21:17;21.00;37.30
43561;DHT22;32305;46.410;17.394;2022-12-29T16:23:49;21.00;37.30
43561;DHT22;32305;46.410;17.394;2022-12-29T16:26:18;21.00;37.30
43561;DHT22;32305;46.410;17.394;2022-12-29T16:28:54;21.00;37.40
43561;DHT22;32305;46.410;17.394;2022-12-29T16:31:25;21.00;37.40
43561;DHT22;32305;46.410;17.394;2022-12-29T16:33:55;21.00;37.40
43561;DHT22;32305;46.410;17.394;2022-12-29T16:36:34;20.90;37.40
43561;DHT22;32305;46.410;17.394;2022-12-29T16:39:24;20.90;37.40